KNGP

Naval Air Station Corpus Christi

Airport
ICAO code
KNGP
Summary
ICAO Region
NAM
ICAO Territory
Location

Corpus Christi, Texas,

Coordinates
27° 41' 33" N , 97° 16' 53" W
KCC
Metar
KNGP 202156Z 16016KT 10SM CLR 25/16 A3018 RMK AO2 SLP220 T02500156

Description

Naval Air Station Corpus Christi, also known as Truax Field, is a naval base located 10 km southeast of the central business district of Corpus Christi, in Nueces County, Texas.

Climatology

Humid “subtropical” climate (Köppen climate classification Cfa) - characterized by hot, humid summers and mild winters. Most rainfall occurs during summer and is often associated with thunderstorms and occasional tropical storms (hurricanes).

Runways

Designator Length Width Surface Rops
4/22 1523 61 ASP Yes/Yes
13L/31R 1523 61 ASP Yes/Yes
17/35 1525 61 ASP Yes/Yes
13R/31L 2439 61 PEM Yes/Yes

Airport map

Aerial View

SKYbrary Partners:

Safety knowledge contributed by: